sensor_id;sensor_type;location;lat;lon;timestamp;P1;durP1;ratioP1;P2;durP2;ratioP2
42294;SDS011;27947;47.556;18.718;2024-01-11T00:00:06;38.92;;;18.92;;
42294;SDS011;27947;47.556;18.718;2024-01-11T00:02:32;45.47;;;20.40;;
42294;SDS011;27947;47.556;18.718;2024-01-11T00:04:57;46.00;;;22.42;;
42294;SDS011;27947;47.556;18.718;2024-01-11T00:07:22;45.67;;;23.15;;
42294;SDS011;27947;47.556;18.718;2024-01-11T00:09:47;44.47;;;23.40;;
42294;SDS011;27947;47.556;18.718;2024-01-11T00:12:13;58.15;;;25.70;;
42294;SDS011;27947;47.556;18.718;2024-01-11T00:14:38;43.28;;;22.20;;
42294;SDS011;27947;47.556;18.718;2024-01-11T00:17:03;51.70;;;23.38;;
42294;SDS011;27947;47.556;18.718;2024-01-11T00:19:29;46.70;;;21.33;;
42294;SDS011;27947;47.556;18.718;2024-01-11T00:21:54;39.38;;;19.38;;
42294;SDS011;27947;47.556;18.718;2024-01-11T00:24:19;46.65;;;21.50;;
42294;SDS011;27947;47.556;18.718;2024-01-11T00:26:44;44.63;;;21.67;;
42294;SDS011;27947;47.556;18.718;2024-01-11T00:29:10;48.80;;;21.85;;
42294;SDS011;27947;47.556;18.718;2024-01-11T00:31:35;44.63;;;21.20;;
42294;SDS011;27947;47.556;18.718;2024-01-11T00:34:00;43.35;;;21.42;;
42294;SDS011;27947;47.556;18.718;2024-01-11T00:36:26;43.13;;;19.85;;
42294;SDS011;27947;47.556;18.718;2024-01-11T00:38:51;41.03;;;18.70;;
42294;SDS011;27947;47.556;18.718;2024-01-11T00:41:16;36.72;;;18.48;;
42294;SDS011;27947;47.556;18.718;2024-01-11T00:43:42;36.75;;;18.17;;
42294;SDS011;27947;47.556;18.718;2024-01-11T00:46:07;38.35;;;18.52;;
42294;SDS011;27947;47.556;18.718;2024-01-11T00:48:32;40.83;;;17.88;;
42294;SDS011;27947;47.556;18.718;2024-01-11T00:50:58;39.55;;;18.73;;
42294;SDS011;27947;47.556;18.718;2024-01-11T00:53:23;32.85;;;17.02;;
42294;SDS011;27947;47.556;18.718;2024-01-11T00:55:48;38.80;;;17.38;;
42294;SDS011;27947;47.556;18.718;2024-01-11T00:58:14;33.90;;;16.17;;
42294;SDS011;27947;47.556;18.718;2024-01-11T01:00:39;32.85;;;16.60;;
42294;SDS011;27947;47.556;18.718;2024-01-11T01:03:04;35.13;;;16.80;;
42294;SDS011;27947;47.556;18.718;2024-01-11T01:05:29;38.38;;;18.23;;
42294;SDS011;27947;47.556;18.718;2024-01-11T01:07:55;33.83;;;16.35;;
42294;SDS011;27947;47.556;18.718;2024-01-11T01:10:20;33.05;;;16.40;;
42294;SDS011;27947;47.556;18.718;2024-01-11T01:12:45;34.35;;;15.63;;
42294;SDS011;27947;47.556;18.718;2024-01-11T01:15:11;33.58;;;15.50;;
42294;SDS011;27947;47.556;18.718;2024-01-11T01:17:36;31.23;;;15.25;;
42294;SDS011;27947;47.556;18.718;2024-01-11T01:20:02;38.83;;;18.05;;
42294;SDS011;27947;47.556;18.718;2024-01-11T01:22:28;41.75;;;20.15;;
42294;SDS011;27947;47.556;18.718;2024-01-11T01:24:53;44.03;;;19.05;;
42294;SDS011;27947;47.556;18.718;2024-01-11T01:27:18;37.38;;;16.77;;
42294;SDS011;27947;47.556;18.718;2024-01-11T01:29:44;36.63;;;17.45;;
42294;SDS011;27947;47.556;18.718;2024-01-11T01:32:09;36.72;;;16.02;;
42294;SDS011;27947;47.556;18.718;2024-01-11T01:34:34;37.67;;;18.33;;
42294;SDS011;27947;47.556;18.718;2024-01-11T01:37:00;42.03;;;19.52;;
42294;SDS011;27947;47.556;18.718;2024-01-11T01:39:25;43.58;;;19.67;;
42294;SDS011;27947;47.556;18.718;2024-01-11T01:41:50;36.85;;;18.23;;
42294;SDS011;27947;47.556;18.718;2024-01-11T01:44:15;33.28;;;17.17;;
42294;SDS011;27947;47.556;18.718;2024-01-11T01:46:41;38.08;;;17.20;;
42294;SDS011;27947;47.556;18.718;2024-01-11T01:49:06;33.42;;;16.20;;
42294;SDS011;27947;47.556;18.718;2024-01-11T01:51:31;34.75;;;17.48;;
42294;SDS011;27947;47.556;18.718;2024-01-11T01:53:57;39.70;;;17.25;;
42294;SDS011;27947;47.556;18.718;2024-01-11T01:56:23;34.67;;;17.23;;
42294;SDS011;27947;47.556;18.718;2024-01-11T01:58:50;35.83;;;16.90;;
42294;SDS011;27947;47.556;18.718;2024-01-11T02:01:16;34.17;;;16.95;;
42294;SDS011;27947;47.556;18.718;2024-01-11T02:03:42;32.40;;;16.02;;
42294;SDS011;27947;47.556;18.718;2024-01-11T02:06:08;37.63;;;18.42;;
42294;SDS011;27947;47.556;18.718;2024-01-11T02:08:33;40.42;;;19.27;;
42294;SDS011;27947;47.556;18.718;2024-01-11T02:10:59;38.45;;;19.80;;
42294;SDS011;27947;47.556;18.718;2024-01-11T02:13:25;44.08;;;18.52;;
42294;SDS011;27947;47.556;18.718;2024-01-11T02:15:50;37.25;;;18.42;;
42294;SDS011;27947;47.556;18.718;2024-01-11T02:18:15;33.22;;;16.45;;
42294;SDS011;27947;47.556;18.718;2024-01-11T02:20:41;31.80;;;14.20;;
42294;SDS011;27947;47.556;18.718;2024-01-11T02:23:07;27.95;;;13.52;;
42294;SDS011;27947;47.556;18.718;2024-01-11T02:25:33;31.38;;;14.60;;
42294;SDS011;27947;47.556;18.718;2024-01-11T02:27:58;34.97;;;15.48;;
42294;SDS011;27947;47.556;18.718;2024-01-11T02:30:24;32.53;;;14.73;;
42294;SDS011;27947;47.556;18.718;2024-01-11T02:32:50;30.63;;;15.07;;
42294;SDS011;27947;47.556;18.718;2024-01-11T02:35:16;29.92;;;14.00;;
42294;SDS011;27947;47.556;18.718;2024-01-11T02:37:41;28.27;;;13.77;;
42294;SDS011;27947;47.556;18.718;2024-01-11T02:40:07;31.13;;;15.63;;
42294;SDS011;27947;47.556;18.718;2024-01-11T02:42:33;29.95;;;15.02;;
42294;SDS011;27947;47.556;18.718;2024-01-11T02:44:58;29.80;;;14.75;;
42294;SDS011;27947;47.556;18.718;2024-01-11T02:47:23;31.33;;;14.18;;
42294;SDS011;27947;47.556;18.718;2024-01-11T02:49:49;28.80;;;14.30;;
42294;SDS011;27947;47.556;18.718;2024-01-11T02:52:14;28.52;;;13.80;;
42294;SDS011;27947;47.556;18.718;2024-01-11T02:54:40;26.80;;;13.25;;
42294;SDS011;27947;47.556;18.718;2024-01-11T02:57:05;28.48;;;13.93;;
42294;SDS011;27947;47.556;18.718;2024-01-11T02:59:30;26.67;;;12.77;;
42294;SDS011;27947;47.556;18.718;2024-01-11T03:01:56;27.20;;;13.18;;
42294;SDS011;27947;47.556;18.718;2024-01-11T03:04:21;26.30;;;13.45;;
42294;SDS011;27947;47.556;18.718;2024-01-11T03:06:46;32.08;;;13.13;;
42294;SDS011;27947;47.556;18.718;2024-01-11T03:09:11;26.55;;;13.25;;
42294;SDS011;27947;47.556;18.718;2024-01-11T03:11:37;25.95;;;12.45;;
42294;SDS011;27947;47.556;18.718;2024-01-11T03:14:02;22.85;;;12.10;;
42294;SDS011;27947;47.556;18.718;2024-01-11T03:16:28;29.08;;;12.75;;
42294;SDS011;27947;47.556;18.718;2024-01-11T03:18:53;24.55;;;12.07;;
42294;SDS011;27947;47.556;18.718;2024-01-11T03:21:18;24.88;;;12.80;;
42294;SDS011;27947;47.556;18.718;2024-01-11T03:23:43;22.85;;;12.55;;
42294;SDS011;27947;47.556;18.718;2024-01-11T03:26:18;25.25;;;11.98;;
42294;SDS011;27947;47.556;18.718;2024-01-11T03:28:43;27.63;;;13.52;;
42294;SDS011;27947;47.556;18.718;2024-01-11T03:31:09;22.15;;;11.93;;
42294;SDS011;27947;47.556;18.718;2024-01-11T03:33:34;26.85;;;12.15;;
42294;SDS011;27947;47.556;18.718;2024-01-11T03:36:05;27.17;;;12.75;;
42294;SDS011;27947;47.556;18.718;2024-01-11T03:38:31;24.85;;;12.40;;
42294;SDS011;27947;47.556;18.718;2024-01-11T03:40:56;27.17;;;13.05;;
42294;SDS011;27947;47.556;18.718;2024-01-11T03:43:21;25.50;;;12.38;;
42294;SDS011;27947;47.556;18.718;2024-01-11T03:45:46;25.55;;;13.02;;
42294;SDS011;27947;47.556;18.718;2024-01-11T03:48:12;27.33;;;13.98;;
42294;SDS011;27947;47.556;18.718;2024-01-11T03:50:37;27.98;;;13.70;;
42294;SDS011;27947;47.556;18.718;2024-01-11T03:53:02;23.60;;;12.23;;
42294;SDS011;27947;47.556;18.718;2024-01-11T03:55:29;31.95;;;16.75;;
42294;SDS011;27947;47.556;18.718;2024-01-11T03:57:54;51.97;;;24.85;;
42294;SDS011;27947;47.556;18.718;2024-01-11T04:00:19;46.40;;;23.77;;
42294;SDS011;27947;47.556;18.718;2024-01-11T04:02:45;49.00;;;23.92;;
42294;SDS011;27947;47.556;18.718;2024-01-11T04:05:10;50.35;;;25.23;;
42294;SDS011;27947;47.556;18.718;2024-01-11T04:07:35;53.97;;;24.95;;
42294;SDS011;27947;47.556;18.718;2024-01-11T04:10:01;52.25;;;23.83;;
42294;SDS011;27947;47.556;18.718;2024-01-11T04:12:26;47.72;;;22.08;;
42294;SDS011;27947;47.556;18.718;2024-01-11T04:14:51;44.67;;;20.58;;
42294;SDS011;27947;47.556;18.718;2024-01-11T04:17:16;39.25;;;19.48;;
42294;SDS011;27947;47.556;18.718;2024-01-11T04:19:41;43.35;;;18.10;;
42294;SDS011;27947;47.556;18.718;2024-01-11T04:22:07;30.02;;;13.85;;
42294;SDS011;27947;47.556;18.718;2024-01-11T04:24:32;27.13;;;12.73;;
42294;SDS011;27947;47.556;18.718;2024-01-11T04:26:58;31.70;;;14.55;;
42294;SDS011;27947;47.556;18.718;2024-01-11T04:29:23;27.73;;;13.65;;
42294;SDS011;27947;47.556;18.718;2024-01-11T04:31:49;28.45;;;13.93;;
42294;SDS011;27947;47.556;18.718;2024-01-11T04:34:14;24.50;;;12.93;;
42294;SDS011;27947;47.556;18.718;2024-01-11T04:36:39;29.27;;;14.10;;
42294;SDS011;27947;47.556;18.718;2024-01-11T04:39:05;27.45;;;13.30;;
42294;SDS011;27947;47.556;18.718;2024-01-11T04:41:31;26.33;;;12.80;;
42294;SDS011;27947;47.556;18.718;2024-01-11T04:43:56;30.17;;;13.88;;
42294;SDS011;27947;47.556;18.718;2024-01-11T04:46:22;29.65;;;13.68;;
42294;SDS011;27947;47.556;18.718;2024-01-11T04:48:48;30.30;;;13.55;;
42294;SDS011;27947;47.556;18.718;2024-01-11T04:51:14;34.83;;;15.05;;
42294;SDS011;27947;47.556;18.718;2024-01-11T04:53:39;29.90;;;14.25;;
42294;SDS011;27947;47.556;18.718;2024-01-11T04:56:09;29.90;;;14.07;;
42294;SDS011;27947;47.556;18.718;2024-01-11T04:58:38;30.65;;;14.68;;
42294;SDS011;27947;47.556;18.718;2024-01-11T05:01:07;31.23;;;14.80;;
42294;SDS011;27947;47.556;18.718;2024-01-11T05:06:01;30.87;;;14.20;;
42294;SDS011;27947;47.556;18.718;2024-01-11T05:08:27;29.30;;;14.43;;
42294;SDS011;27947;47.556;18.718;2024-01-11T05:10:53;25.27;;;14.07;;
42294;SDS011;27947;47.556;18.718;2024-01-11T05:13:18;29.75;;;14.82;;
42294;SDS011;27947;47.556;18.718;2024-01-11T05:15:43;34.08;;;15.48;;
42294;SDS011;27947;47.556;18.718;2024-01-11T05:18:09;32.53;;;15.38;;
42294;SDS011;27947;47.556;18.718;2024-01-11T05:20:34;33.90;;;15.95;;
42294;SDS011;27947;47.556;18.718;2024-01-11T05:22:59;33.55;;;15.93;;
42294;SDS011;27947;47.556;18.718;2024-01-11T05:25:26;35.28;;;16.80;;
42294;SDS011;27947;47.556;18.718;2024-01-11T05:27:51;36.15;;;16.30;;
42294;SDS011;27947;47.556;18.718;2024-01-11T05:30:16;32.30;;;15.95;;
42294;SDS011;27947;47.556;18.718;2024-01-11T05:32:41;35.83;;;17.52;;
42294;SDS011;27947;47.556;18.718;2024-01-11T05:35:07;34.53;;;16.73;;
42294;SDS011;27947;47.556;18.718;2024-01-11T05:37:32;30.58;;;15.40;;
42294;SDS011;27947;47.556;18.718;2024-01-11T05:39:58;34.45;;;17.23;;
42294;SDS011;27947;47.556;18.718;2024-01-11T05:42:23;34.78;;;16.77;;
42294;SDS011;27947;47.556;18.718;2024-01-11T05:44:48;36.30;;;17.17;;
42294;SDS011;27947;47.556;18.718;2024-01-11T05:47:14;35.25;;;16.58;;
42294;SDS011;27947;47.556;18.718;2024-01-11T05:49:40;35.75;;;16.33;;
42294;SDS011;27947;47.556;18.718;2024-01-11T05:52:05;34.10;;;16.75;;
42294;SDS011;27947;47.556;18.718;2024-01-11T05:54:30;41.63;;;16.23;;
42294;SDS011;27947;47.556;18.718;2024-01-11T05:56:55;32.55;;;16.48;;
42294;SDS011;27947;47.556;18.718;2024-01-11T05:59:23;32.35;;;16.10;;
42294;SDS011;27947;47.556;18.718;2024-01-11T06:01:48;34.47;;;16.70;;
42294;SDS011;27947;47.556;18.718;2024-01-11T06:04:13;34.55;;;16.33;;
42294;SDS011;27947;47.556;18.718;2024-01-11T06:06:39;30.25;;;15.30;;
42294;SDS011;27947;47.556;18.718;2024-01-11T06:09:05;38.70;;;17.23;;
42294;SDS011;27947;47.556;18.718;2024-01-11T06:11:30;33.65;;;16.70;;
42294;SDS011;27947;47.556;18.718;2024-01-11T06:13:55;34.10;;;16.27;;
42294;SDS011;27947;47.556;18.718;2024-01-11T06:16:20;33.53;;;16.52;;
42294;SDS011;27947;47.556;18.718;2024-01-11T06:18:46;37.17;;;18.00;;
42294;SDS011;27947;47.556;18.718;2024-01-11T06:21:11;33.72;;;17.15;;
42294;SDS011;27947;47.556;18.718;2024-01-11T06:23:36;37.67;;;16.83;;
42294;SDS011;27947;47.556;18.718;2024-01-11T06:26:02;30.60;;;16.23;;
42294;SDS011;27947;47.556;18.718;2024-01-11T06:28:28;38.05;;;17.60;;
42294;SDS011;27947;47.556;18.718;2024-01-11T06:30:53;36.10;;;17.30;;
42294;SDS011;27947;47.556;18.718;2024-01-11T06:33:18;33.75;;;17.02;;
42294;SDS011;27947;47.556;18.718;2024-01-11T06:35:45;35.15;;;17.55;;
42294;SDS011;27947;47.556;18.718;2024-01-11T06:38:10;40.38;;;18.65;;
42294;SDS011;27947;47.556;18.718;2024-01-11T06:40:36;35.05;;;17.30;;
42294;SDS011;27947;47.556;18.718;2024-01-11T06:43:01;41.03;;;19.10;;
42294;SDS011;27947;47.556;18.718;2024-01-11T06:45:26;40.80;;;18.67;;
42294;SDS011;27947;47.556;18.718;2024-01-11T06:47:51;34.28;;;17.30;;
42294;SDS011;27947;47.556;18.718;2024-01-11T06:50:17;40.80;;;19.40;;
42294;SDS011;27947;47.556;18.718;2024-01-11T06:52:42;35.13;;;18.33;;
42294;SDS011;27947;47.556;18.718;2024-01-11T06:55:08;42.40;;;19.55;;
42294;SDS011;27947;47.556;18.718;2024-01-11T06:57:33;43.35;;;19.83;;
42294;SDS011;27947;47.556;18.718;2024-01-11T06:59:58;43.08;;;19.45;;
42294;SDS011;27947;47.556;18.718;2024-01-11T07:02:24;37.33;;;18.67;;
42294;SDS011;27947;47.556;18.718;2024-01-11T07:04:49;39.53;;;18.30;;
42294;SDS011;27947;47.556;18.718;2024-01-11T07:07:14;38.72;;;18.35;;
42294;SDS011;27947;47.556;18.718;2024-01-11T07:09:39;43.55;;;19.42;;
42294;SDS011;27947;47.556;18.718;2024-01-11T07:12:05;47.30;;;21.33;;
42294;SDS011;27947;47.556;18.718;2024-01-11T07:14:30;41.50;;;19.90;;
42294;SDS011;27947;47.556;18.718;2024-01-11T07:16:56;44.53;;;20.30;;
42294;SDS011;27947;47.556;18.718;2024-01-11T07:19:21;40.25;;;20.52;;
42294;SDS011;27947;47.556;18.718;2024-01-11T07:21:47;44.80;;;21.52;;
42294;SDS011;27947;47.556;18.718;2024-01-11T07:24:12;41.33;;;20.20;;
42294;SDS011;27947;47.556;18.718;2024-01-11T07:26:37;43.97;;;20.75;;
42294;SDS011;27947;47.556;18.718;2024-01-11T07:29:03;47.83;;;21.73;;
42294;SDS011;27947;47.556;18.718;2024-01-11T07:31:28;41.63;;;21.17;;
42294;SDS011;27947;47.556;18.718;2024-01-11T07:33:54;39.80;;;19.58;;
42294;SDS011;27947;47.556;18.718;2024-01-11T07:36:19;41.78;;;20.85;;
42294;SDS011;27947;47.556;18.718;2024-01-11T07:38:45;44.08;;;21.25;;
42294;SDS011;27947;47.556;18.718;2024-01-11T07:41:10;46.55;;;22.45;;
42294;SDS011;27947;47.556;18.718;2024-01-11T07:43:35;42.47;;;20.25;;
42294;SDS011;27947;47.556;18.718;2024-01-11T07:46:04;45.15;;;20.75;;
42294;SDS011;27947;47.556;18.718;2024-01-11T07:48:30;53.05;;;22.00;;
42294;SDS011;27947;47.556;18.718;2024-01-11T07:50:56;43.65;;;19.13;;
42294;SDS011;27947;47.556;18.718;2024-01-11T07:53:22;40.70;;;20.45;;
42294;SDS011;27947;47.556;18.718;2024-01-11T07:55:47;42.42;;;20.52;;
42294;SDS011;27947;47.556;18.718;2024-01-11T07:58:13;46.60;;;21.63;;
42294;SDS011;27947;47.556;18.718;2024-01-11T08:00:38;45.60;;;20.80;;
42294;SDS011;27947;47.556;18.718;2024-01-11T08:03:04;45.25;;;20.00;;
42294;SDS011;27947;47.556;18.718;2024-01-11T08:05:29;44.08;;;20.80;;
42294;SDS011;27947;47.556;18.718;2024-01-11T08:07:54;47.10;;;21.00;;
42294;SDS011;27947;47.556;18.718;2024-01-11T08:10:19;39.60;;;19.55;;
42294;SDS011;27947;47.556;18.718;2024-01-11T08:12:45;43.33;;;19.73;;
42294;SDS011;27947;47.556;18.718;2024-01-11T08:15:10;43.72;;;18.75;;
42294;SDS011;27947;47.556;18.718;2024-01-11T08:17:46;38.70;;;18.98;;
42294;SDS011;27947;47.556;18.718;2024-01-11T08:20:11;38.22;;;18.80;;
42294;SDS011;27947;47.556;18.718;2024-01-11T08:22:40;37.97;;;19.08;;
42294;SDS011;27947;47.556;18.718;2024-01-11T08:25:06;41.97;;;18.73;;
42294;SDS011;27947;47.556;18.718;2024-01-11T08:27:31;39.00;;;19.25;;
42294;SDS011;27947;47.556;18.718;2024-01-11T08:29:57;40.25;;;19.48;;
42294;SDS011;27947;47.556;18.718;2024-01-11T08:32:22;36.70;;;18.98;;
42294;SDS011;27947;47.556;18.718;2024-01-11T08:34:48;41.15;;;19.42;;
42294;SDS011;27947;47.556;18.718;2024-01-11T08:37:13;39.63;;;19.27;;
42294;SDS011;27947;47.556;18.718;2024-01-11T08:39:39;36.47;;;17.75;;
42294;SDS011;27947;47.556;18.718;2024-01-11T08:42:04;38.08;;;18.27;;
42294;SDS011;27947;47.556;18.718;2024-01-11T08:44:30;40.95;;;19.10;;
42294;SDS011;27947;47.556;18.718;2024-01-11T08:46:56;36.42;;;19.25;;
42294;SDS011;27947;47.556;18.718;2024-01-11T08:49:22;37.85;;;17.70;;
42294;SDS011;27947;47.556;18.718;2024-01-11T08:51:47;43.40;;;18.80;;
42294;SDS011;27947;47.556;18.718;2024-01-11T08:54:13;37.13;;;18.02;;
42294;SDS011;27947;47.556;18.718;2024-01-11T08:56:41;43.58;;;19.75;;
42294;SDS011;27947;47.556;18.718;2024-01-11T08:59:06;38.47;;;18.35;;
42294;SDS011;27947;47.556;18.718;2024-01-11T09:01:34;39.28;;;18.70;;
42294;SDS011;27947;47.556;18.718;2024-01-11T09:04:00;36.40;;;19.33;;
42294;SDS011;27947;47.556;18.718;2024-01-11T09:06:26;33.35;;;17.15;;
42294;SDS011;27947;47.556;18.718;2024-01-11T09:08:51;41.53;;;19.42;;
42294;SDS011;27947;47.556;18.718;2024-01-11T09:11:17;37.35;;;18.88;;
42294;SDS011;27947;47.556;18.718;2024-01-11T09:13:42;41.33;;;19.75;;
42294;SDS011;27947;47.556;18.718;2024-01-11T09:16:08;41.20;;;19.02;;
42294;SDS011;27947;47.556;18.718;2024-01-11T09:18:34;38.95;;;19.13;;
42294;SDS011;27947;47.556;18.718;2024-01-11T09:20:59;42.00;;;19.40;;
42294;SDS011;27947;47.556;18.718;2024-01-11T09:23:25;40.97;;;18.80;;
42294;SDS011;27947;47.556;18.718;2024-01-11T09:25:50;42.70;;;20.02;;
42294;SDS011;27947;47.556;18.718;2024-01-11T09:28:15;36.80;;;18.50;;
42294;SDS011;27947;47.556;18.718;2024-01-11T09:30:40;33.50;;;18.15;;
42294;SDS011;27947;47.556;18.718;2024-01-11T09:33:06;33.53;;;17.63;;
42294;SDS011;27947;47.556;18.718;2024-01-11T09:35:31;34.22;;;17.02;;
42294;SDS011;27947;47.556;18.718;2024-01-11T09:37:56;34.15;;;18.05;;
42294;SDS011;27947;47.556;18.718;2024-01-11T09:40:21;33.22;;;16.65;;
42294;SDS011;27947;47.556;18.718;2024-01-11T09:42:47;31.90;;;16.65;;
42294;SDS011;27947;47.556;18.718;2024-01-11T09:45:14;33.40;;;16.02;;
42294;SDS011;27947;47.556;18.718;2024-01-11T09:47:43;28.77;;;14.85;;
42294;SDS011;27947;47.556;18.718;2024-01-11T09:50:10;29.35;;;14.27;;
42294;SDS011;27947;47.556;18.718;2024-01-11T09:52:36;29.30;;;14.70;;
42294;SDS011;27947;47.556;18.718;2024-01-11T09:55:03;23.58;;;12.90;;
42294;SDS011;27947;47.556;18.718;2024-01-11T09:57:29;27.13;;;12.82;;
42294;SDS011;27947;47.556;18.718;2024-01-11T09:59:57;27.10;;;13.60;;
42294;SDS011;27947;47.556;18.718;2024-01-11T10:02:25;31.42;;;13.18;;
42294;SDS011;27947;47.556;18.718;2024-01-11T10:04:52;27.98;;;13.30;;
42294;SDS011;27947;47.556;18.718;2024-01-11T10:07:18;25.95;;;13.27;;
42294;SDS011;27947;47.556;18.718;2024-01-11T10:09:45;24.75;;;13.90;;
42294;SDS011;27947;47.556;18.718;2024-01-11T10:12:11;25.33;;;13.40;;
42294;SDS011;27947;47.556;18.718;2024-01-11T10:14:36;26.13;;;13.63;;
42294;SDS011;27947;47.556;18.718;2024-01-11T10:17:01;27.23;;;14.45;;
42294;SDS011;27947;47.556;18.718;2024-01-11T10:19:27;23.17;;;11.85;;
42294;SDS011;27947;47.556;18.718;2024-01-11T10:21:52;21.00;;;10.70;;
42294;SDS011;27947;47.556;18.718;2024-01-11T10:24:18;26.58;;;13.85;;
42294;SDS011;27947;47.556;18.718;2024-01-11T10:26:44;27.60;;;13.90;;
42294;SDS011;27947;47.556;18.718;2024-01-11T10:29:09;24.00;;;12.20;;
42294;SDS011;27947;47.556;18.718;2024-01-11T10:31:36;25.45;;;13.50;;
42294;SDS011;27947;47.556;18.718;2024-01-11T10:34:01;29.27;;;14.55;;
42294;SDS011;27947;47.556;18.718;2024-01-11T10:36:26;23.88;;;11.88;;
42294;SDS011;27947;47.556;18.718;2024-01-11T10:38:55;26.23;;;12.77;;
42294;SDS011;27947;47.556;18.718;2024-01-11T10:41:21;26.92;;;13.00;;
42294;SDS011;27947;47.556;18.718;2024-01-11T10:43:46;22.13;;;11.43;;
42294;SDS011;27947;47.556;18.718;2024-01-11T10:46:13;26.95;;;13.18;;
42294;SDS011;27947;47.556;18.718;2024-01-11T10:48:40;27.48;;;13.38;;
42294;SDS011;27947;47.556;18.718;2024-01-11T10:51:08;24.95;;;12.50;;
42294;SDS011;27947;47.556;18.718;2024-01-11T10:56:04;23.85;;;12.20;;
42294;SDS011;27947;47.556;18.718;2024-01-11T10:58:30;24.13;;;12.05;;
42294;SDS011;27947;47.556;18.718;2024-01-11T11:00:56;21.33;;;11.00;;
42294;SDS011;27947;47.556;18.718;2024-01-11T11:03:25;22.05;;;11.98;;
42294;SDS011;27947;47.556;18.718;2024-01-11T11:05:52;22.67;;;11.65;;
42294;SDS011;27947;47.556;18.718;2024-01-11T11:08:18;18.80;;;10.38;;
42294;SDS011;27947;47.556;18.718;2024-01-11T11:10:45;19.85;;;10.52;;
42294;SDS011;27947;47.556;18.718;2024-01-11T11:13:10;19.13;;;10.20;;
42294;SDS011;27947;47.556;18.718;2024-01-11T11:15:37;20.13;;;10.32;;
42294;SDS011;27947;47.556;18.718;2024-01-11T11:18:03;17.95;;;9.55;;
42294;SDS011;27947;47.556;18.718;2024-01-11T11:20:31;20.08;;;10.38;;
42294;SDS011;27947;47.556;18.718;2024-01-11T11:23:03;20.40;;;8.63;;
42294;SDS011;27947;47.556;18.718;2024-01-11T11:25:29;18.45;;;9.90;;
42294;SDS011;27947;47.556;18.718;2024-01-11T11:27:55;23.08;;;10.50;;
42294;SDS011;27947;47.556;18.718;2024-01-11T11:30:21;20.08;;;9.75;;
42294;SDS011;27947;47.556;18.718;2024-01-11T11:32:46;21.35;;;10.27;;
42294;SDS011;27947;47.556;18.718;2024-01-11T11:35:12;19.27;;;9.93;;
42294;SDS011;27947;47.556;18.718;2024-01-11T11:37:37;19.50;;;10.32;;
42294;SDS011;27947;47.556;18.718;2024-01-11T11:40:04;23.05;;;10.40;;
42294;SDS011;27947;47.556;18.718;2024-01-11T11:42:36;22.77;;;11.40;;
42294;SDS011;27947;47.556;18.718;2024-01-11T11:45:01;20.52;;;10.48;;
42294;SDS011;27947;47.556;18.718;2024-01-11T11:47:33;21.20;;;9.95;;
42294;SDS011;27947;47.556;18.718;2024-01-11T11:50:05;21.10;;;10.52;;
42294;SDS011;27947;47.556;18.718;2024-01-11T11:52:34;18.13;;;9.77;;
42294;SDS011;27947;47.556;18.718;2024-01-11T11:55:00;19.40;;;10.27;;
42294;SDS011;27947;47.556;18.718;2024-01-11T11:57:26;18.20;;;9.50;;
42294;SDS011;27947;47.556;18.718;2024-01-11T11:59:53;17.13;;;9.57;;
42294;SDS011;27947;47.556;18.718;2024-01-11T12:02:19;20.25;;;10.05;;
42294;SDS011;27947;47.556;18.718;2024-01-11T12:04:47;18.60;;;9.63;;
42294;SDS011;27947;47.556;18.718;2024-01-11T12:07:13;25.98;;;10.68;;
42294;SDS011;27947;47.556;18.718;2024-01-11T12:09:39;18.38;;;9.80;;
42294;SDS011;27947;47.556;18.718;2024-01-11T12:12:04;20.92;;;11.27;;
42294;SDS011;27947;47.556;18.718;2024-01-11T12:14:29;23.08;;;9.88;;
42294;SDS011;27947;47.556;18.718;2024-01-11T12:16:55;18.80;;;10.07;;
42294;SDS011;27947;47.556;18.718;2024-01-11T12:19:21;23.48;;;11.40;;
42294;SDS011;27947;47.556;18.718;2024-01-11T12:21:47;21.38;;;10.25;;
42294;SDS011;27947;47.556;18.718;2024-01-11T12:24:13;21.70;;;10.60;;
42294;SDS011;27947;47.556;18.718;2024-01-11T12:26:38;18.95;;;10.38;;
42294;SDS011;27947;47.556;18.718;2024-01-11T12:29:04;19.00;;;10.02;;
42294;SDS011;27947;47.556;18.718;2024-01-11T12:31:29;17.38;;;9.45;;
42294;SDS011;27947;47.556;18.718;2024-01-11T12:33:54;19.30;;;10.75;;
42294;SDS011;27947;47.556;18.718;2024-01-11T12:36:19;22.08;;;10.75;;
42294;SDS011;27947;47.556;18.718;2024-01-11T12:38:48;17.35;;;9.10;;
42294;SDS011;27947;47.556;18.718;2024-01-11T12:41:13;17.60;;;9.68;;
42294;SDS011;27947;47.556;18.718;2024-01-11T12:43:39;19.88;;;9.48;;
42294;SDS011;27947;47.556;18.718;2024-01-11T12:46:04;20.63;;;10.05;;
42294;SDS011;27947;47.556;18.718;2024-01-11T12:48:30;16.80;;;8.95;;
42294;SDS011;27947;47.556;18.718;2024-01-11T12:50:55;18.65;;;9.95;;
42294;SDS011;27947;47.556;18.718;2024-01-11T12:53:21;18.00;;;9.85;;
42294;SDS011;27947;47.556;18.718;2024-01-11T12:56:02;21.10;;;9.90;;
42294;SDS011;27947;47.556;18.718;2024-01-11T12:58:27;18.77;;;10.13;;
42294;SDS011;27947;47.556;18.718;2024-01-11T13:00:53;19.02;;;9.52;;
42294;SDS011;27947;47.556;18.718;2024-01-11T13:03:19;21.92;;;11.52;;
42294;SDS011;27947;47.556;18.718;2024-01-11T13:05:45;18.00;;;9.38;;
42294;SDS011;27947;47.556;18.718;2024-01-11T13:08:10;18.27;;;9.95;;
42294;SDS011;27947;47.556;18.718;2024-01-11T13:10:36;21.13;;;9.82;;
42294;SDS011;27947;47.556;18.718;2024-01-11T13:13:02;19.48;;;9.82;;
42294;SDS011;27947;47.556;18.718;2024-01-11T13:15:27;19.52;;;10.25;;
42294;SDS011;27947;47.556;18.718;2024-01-11T13:17:54;20.02;;;10.05;;
42294;SDS011;27947;47.556;18.718;2024-01-11T13:20:20;19.80;;;10.23;;
42294;SDS011;27947;47.556;18.718;2024-01-11T13:22:45;19.63;;;10.15;;
42294;SDS011;27947;47.556;18.718;2024-01-11T13:25:10;18.77;;;10.65;;
42294;SDS011;27947;47.556;18.718;2024-01-11T13:27:36;18.67;;;10.00;;
42294;SDS011;27947;47.556;18.718;2024-01-11T13:30:01;14.90;;;8.60;;
42294;SDS011;27947;47.556;18.718;2024-01-11T13:32:26;18.55;;;9.05;;
42294;SDS011;27947;47.556;18.718;2024-01-11T13:34:52;16.35;;;8.35;;
42294;SDS011;27947;47.556;18.718;2024-01-11T13:37:18;15.75;;;8.20;;
42294;SDS011;27947;47.556;18.718;2024-01-11T13:39:43;16.48;;;8.55;;
42294;SDS011;27947;47.556;18.718;2024-01-11T13:42:09;17.77;;;9.68;;
42294;SDS011;27947;47.556;18.718;2024-01-11T13:44:34;17.20;;;9.55;;
42294;SDS011;27947;47.556;18.718;2024-01-11T13:47:00;22.15;;;9.75;;
42294;SDS011;27947;47.556;18.718;2024-01-11T13:49:25;18.98;;;9.80;;
42294;SDS011;27947;47.556;18.718;2024-01-11T13:51:50;18.83;;;9.93;;
42294;SDS011;27947;47.556;18.718;2024-01-11T13:54:16;18.85;;;10.13;;
42294;SDS011;27947;47.556;18.718;2024-01-11T13:56:41;19.48;;;10.45;;
42294;SDS011;27947;47.556;18.718;2024-01-11T13:59:07;21.70;;;10.57;;
42294;SDS011;27947;47.556;18.718;2024-01-11T14:01:32;20.67;;;10.10;;
42294;SDS011;27947;47.556;18.718;2024-01-11T14:03:57;20.25;;;10.55;;
42294;SDS011;27947;47.556;18.718;2024-01-11T14:06:23;19.65;;;10.90;;